バロー の空港の天気 - METARとTAF

Barrow, Wiley Post-Will Rogers Memorial Airport ( PABR / BRW ) - アメリカ アラスカ州バロー
飛行場実況気象(Metar)
観測時間10/21 06:53 AKDT (10/21 14:53 UTC)
風向・風速南南西 6m/s
視程10km以上
天気現象弱い雪
全天を覆う雲 雲底高度 270m
気温1.1℃
湿度85%
気圧1029hPa
METARPABR 211453Z 21012KT 8SM -SN OVC009 01/M01 A3039 RMK AO2 SLP290 P0001 60001 T00111011 57002
過去の天気等 Google飛行場航空写真 Wunderground天気予報

過去48時間のMETAR

飛行場予報(TAF)
発表時間: 10/21 03:38 AKDT (10/21 11:38 UTC)
予報対象時間: 21日4時 AKDT ~ 22日4時 AKDT
風向・風速南南西 6m/s
視程10km以上
全天を覆う雲 雲底高度 1220m
21日7時 AKDT から
風向・風速南西 7m/s
視程10km以上
天気現象弱い雪
全天を覆う雲 雲底高度 460m
21日11時 AKDT から
風向・風速西南西 7m/s
視程6440m
天気現象もや
全天を覆う雲 雲底高度 210m
PABR 211138Z 2112/2212 21012KT P6SM OVC040
FM211500 23013KT P6SM -SN OVC015
FM211900 24014KT 4SM BR OVC007